sensor_id;sensor_type;location;lat;lon;timestamp;temperature;humidity
78325;DHT22;67584;51.400;6.692;2024-03-17T00:00:20;4.60;87.20
78325;DHT22;67584;51.400;6.692;2024-03-17T00:02:46;4.60;87.00
78325;DHT22;67584;51.400;6.692;2024-03-17T00:05:13;4.70;86.80
78325;DHT22;67584;51.400;6.692;2024-03-17T00:07:39;4.70;86.70
78325;DHT22;67584;51.400;6.692;2024-03-17T00:10:05;4.60;86.80
78325;DHT22;67584;51.400;6.692;2024-03-17T00:12:33;4.70;87.00
78325;DHT22;67584;51.400;6.692;2024-03-17T00:14:59;4.50;86.90
78325;DHT22;67584;51.400;6.692;2024-03-17T00:17:24;4.40;87.00
78325;DHT22;67584;51.400;6.692;2024-03-17T00:19:50;4.60;86.90
78325;DHT22;67584;51.400;6.692;2024-03-17T00:22:16;4.70;86.70
78325;DHT22;67584;51.400;6.692;2024-03-17T00:24:45;4.90;86.40
78325;DHT22;67584;51.400;6.692;2024-03-17T00:27:11;4.90;86.30
78325;DHT22;67584;51.400;6.692;2024-03-17T00:29:37;4.80;86.40
78325;DHT22;67584;51.400;6.692;2024-03-17T00:32:04;4.90;86.50
78325;DHT22;67584;51.400;6.692;2024-03-17T00:34:30;4.80;87.00
78325;DHT22;67584;51.400;6.692;2024-03-17T00:36:55;4.80;87.00
78325;DHT22;67584;51.400;6.692;2024-03-17T00:39:21;4.90;87.00
78325;DHT22;67584;51.400;6.692;2024-03-17T00:41:48;4.80;86.90
78325;DHT22;67584;51.400;6.692;2024-03-17T00:44:14;4.70;86.90
78325;DHT22;67584;51.400;6.692;2024-03-17T00:46:40;4.90;86.90
78325;DHT22;67584;51.400;6.692;2024-03-17T00:49:09;4.60;87.00
78325;DHT22;67584;51.400;6.692;2024-03-17T00:51:35;4.80;87.40
78325;DHT22;67584;51.400;6.692;2024-03-17T00:54:01;4.60;87.40
78325;DHT22;67584;51.400;6.692;2024-03-17T00:56:27;4.50;87.10
78325;DHT22;67584;51.400;6.692;2024-03-17T00:58:53;4.60;87.20
78325;DHT22;67584;51.400;6.692;2024-03-17T01:01:19;4.50;87.20
78325;DHT22;67584;51.400;6.692;2024-03-17T01:03:45;4.40;87.30
78325;DHT22;67584;51.400;6.692;2024-03-17T01:06:11;4.50;87.30
78325;DHT22;67584;51.400;6.692;2024-03-17T01:08:37;4.40;87.40
78325;DHT22;67584;51.400;6.692;2024-03-17T01:11:02;4.60;87.20
78325;DHT22;67584;51.400;6.692;2024-03-17T01:13:28;4.40;87.30
78325;DHT22;67584;51.400;6.692;2024-03-17T01:15:54;4.60;87.30
78325;DHT22;67584;51.400;6.692;2024-03-17T01:18:20;4.50;87.30
78325;DHT22;67584;51.400;6.692;2024-03-17T01:20:45;4.40;87.20
78325;DHT22;67584;51.400;6.692;2024-03-17T01:23:11;4.30;87.40
78325;DHT22;67584;51.400;6.692;2024-03-17T01:25:37;4.50;87.50
78325;DHT22;67584;51.400;6.692;2024-03-17T01:28:06;4.20;87.50
78325;DHT22;67584;51.400;6.692;2024-03-17T01:30:32;4.10;87.40
78325;DHT22;67584;51.400;6.692;2024-03-17T01:33:00;4.10;87.70
78325;DHT22;67584;51.400;6.692;2024-03-17T01:35:26;4.00;88.00
78325;DHT22;67584;51.400;6.692;2024-03-17T01:37:52;4.10;88.00
78325;DHT22;67584;51.400;6.692;2024-03-17T01:40:17;4.20;88.00
78325;DHT22;67584;51.400;6.692;2024-03-17T01:42:43;3.80;88.00
78325;DHT22;67584;51.400;6.692;2024-03-17T01:45:33;4.00;88.30
78325;DHT22;67584;51.400;6.692;2024-03-17T01:48:01;3.90;88.50
78325;DHT22;67584;51.400;6.692;2024-03-17T01:50:35;4.10;88.70
78325;DHT22;67584;51.400;6.692;2024-03-17T01:53:05;4.00;88.60
78325;DHT22;67584;51.400;6.692;2024-03-17T01:55:38;4.00;88.50
78325;DHT22;67584;51.400;6.692;2024-03-17T01:58:04;4.10;88.50
78325;DHT22;67584;51.400;6.692;2024-03-17T02:00:36;4.20;88.40
78325;DHT22;67584;51.400;6.692;2024-03-17T02:03:05;4.00;88.60
78325;DHT22;67584;51.400;6.692;2024-03-17T02:05:32;4.20;88.70
78325;DHT22;67584;51.400;6.692;2024-03-17T02:07:59;4.20;88.70
78325;DHT22;67584;51.400;6.692;2024-03-17T02:10:25;4.10;88.70
78325;DHT22;67584;51.400;6.692;2024-03-17T02:12:51;4.20;88.50
78325;DHT22;67584;51.400;6.692;2024-03-17T02:15:17;4.40;88.30
78325;DHT22;67584;51.400;6.692;2024-03-17T02:17:43;4.50;87.90
78325;DHT22;67584;51.400;6.692;2024-03-17T02:20:09;4.60;87.80
78325;DHT22;67584;51.400;6.692;2024-03-17T02:22:39;4.30;88.00
78325;DHT22;67584;51.400;6.692;2024-03-17T02:25:05;4.30;87.80
78325;DHT22;67584;51.400;6.692;2024-03-17T02:27:37;4.20;88.00
78325;DHT22;67584;51.400;6.692;2024-03-17T02:30:04;4.20;88.10
78325;DHT22;67584;51.400;6.692;2024-03-17T02:32:35;4.30;88.20
78325;DHT22;67584;51.400;6.692;2024-03-17T02:35:01;4.40;88.50
78325;DHT22;67584;51.400;6.692;2024-03-17T02:37:27;4.10;88.50
78325;DHT22;67584;51.400;6.692;2024-03-17T02:39:52;4.20;88.70
78325;DHT22;67584;51.400;6.692;2024-03-17T02:42:18;4.20;88.80
78325;DHT22;67584;51.400;6.692;2024-03-17T02:44:44;4.40;88.90
78325;DHT22;67584;51.400;6.692;2024-03-17T02:47:11;4.40;89.10
78325;DHT22;67584;51.400;6.692;2024-03-17T02:49:40;4.10;88.90
78325;DHT22;67584;51.400;6.692;2024-03-17T02:52:09;4.40;89.10
78325;DHT22;67584;51.400;6.692;2024-03-17T02:54:36;4.40;88.90
78325;DHT22;67584;51.400;6.692;2024-03-17T02:57:05;4.40;88.80
78325;DHT22;67584;51.400;6.692;2024-03-17T02:59:32;4.50;89.00
78325;DHT22;67584;51.400;6.692;2024-03-17T03:01:59;4.20;88.90
78325;DHT22;67584;51.400;6.692;2024-03-17T03:04:25;4.30;88.90
78325;DHT22;67584;51.400;6.692;2024-03-17T03:06:51;4.20;88.90
78325;DHT22;67584;51.400;6.692;2024-03-17T03:09:16;4.00;89.10
78325;DHT22;67584;51.400;6.692;2024-03-17T03:11:50;4.00;89.20
78325;DHT22;67584;51.400;6.692;2024-03-17T03:14:17;3.80;89.50
78325;DHT22;67584;51.400;6.692;2024-03-17T03:16:43;3.90;89.40
78325;DHT22;67584;51.400;6.692;2024-03-17T03:19:09;3.80;89.50
78325;DHT22;67584;51.400;6.692;2024-03-17T03:21:35;3.70;89.50
78325;DHT22;67584;51.400;6.692;2024-03-17T03:24:01;3.70;89.50
78325;DHT22;67584;51.400;6.692;2024-03-17T03:26:27;3.40;89.70
78325;DHT22;67584;51.400;6.692;2024-03-17T03:28:54;3.30;89.80
78325;DHT22;67584;51.400;6.692;2024-03-17T03:31:20;3.50;90.10
78325;DHT22;67584;51.400;6.692;2024-03-17T03:33:47;3.30;90.30
78325;DHT22;67584;51.400;6.692;2024-03-17T03:36:14;3.30;90.50
78325;DHT22;67584;51.400;6.692;2024-03-17T03:38:40;3.30;90.50
78325;DHT22;67584;51.400;6.692;2024-03-17T03:41:10;3.40;90.50
78325;DHT22;67584;51.400;6.692;2024-03-17T03:43:37;3.40;90.50
78325;DHT22;67584;51.400;6.692;2024-03-17T03:46:03;3.40;90.80
78325;DHT22;67584;51.400;6.692;2024-03-17T03:48:30;3.40;91.10
78325;DHT22;67584;51.400;6.692;2024-03-17T03:50:56;3.30;91.40
78325;DHT22;67584;51.400;6.692;2024-03-17T03:53:22;3.40;91.20
78325;DHT22;67584;51.400;6.692;2024-03-17T03:55:48;3.50;91.40
78325;DHT22;67584;51.400;6.692;2024-03-17T03:58:17;3.20;91.50
78325;DHT22;67584;51.400;6.692;2024-03-17T04:00:43;3.50;91.70
78325;DHT22;67584;51.400;6.692;2024-03-17T04:03:08;3.40;91.80
78325;DHT22;67584;51.400;6.692;2024-03-17T04:05:34;3.50;92.00
78325;DHT22;67584;51.400;6.692;2024-03-17T04:08:00;3.50;91.80
78325;DHT22;67584;51.400;6.692;2024-03-17T04:10:26;3.60;91.90
78325;DHT22;67584;51.400;6.692;2024-03-17T04:12:52;3.50;91.90
78325;DHT22;67584;51.400;6.692;2024-03-17T04:15:19;3.50;92.00
78325;DHT22;67584;51.400;6.692;2024-03-17T04:17:44;3.60;91.90
78325;DHT22;67584;51.400;6.692;2024-03-17T04:20:10;3.70;91.90
78325;DHT22;67584;51.400;6.692;2024-03-17T04:22:39;3.60;91.90
78325;DHT22;67584;51.400;6.692;2024-03-17T04:25:05;4.00;92.00
78325;DHT22;67584;51.400;6.692;2024-03-17T04:27:31;4.20;92.00
78325;DHT22;67584;51.400;6.692;2024-03-17T04:29:59;4.20;91.50
78325;DHT22;67584;51.400;6.692;2024-03-17T04:32:25;4.50;91.10
78325;DHT22;67584;51.400;6.692;2024-03-17T04:34:53;4.50;90.80
78325;DHT22;67584;51.400;6.692;2024-03-17T04:37:19;4.80;89.80
78325;DHT22;67584;51.400;6.692;2024-03-17T04:39:46;4.80;89.50
78325;DHT22;67584;51.400;6.692;2024-03-17T04:42:14;4.90;89.00
78325;DHT22;67584;51.400;6.692;2024-03-17T04:44:41;5.00;88.50
78325;DHT22;67584;51.400;6.692;2024-03-17T04:47:07;5.00;88.50
78325;DHT22;67584;51.400;6.692;2024-03-17T04:49:42;5.20;88.20
78325;DHT22;67584;51.400;6.692;2024-03-17T04:52:11;5.00;87.90
78325;DHT22;67584;51.400;6.692;2024-03-17T04:54:37;5.10;87.80
78325;DHT22;67584;51.400;6.692;2024-03-17T04:57:03;5.10;87.70
78325;DHT22;67584;51.400;6.692;2024-03-17T04:59:29;5.30;87.50
78325;DHT22;67584;51.400;6.692;2024-03-17T05:01:55;5.20;87.40
78325;DHT22;67584;51.400;6.692;2024-03-17T05:04:21;5.20;87.40
78325;DHT22;67584;51.400;6.692;2024-03-17T05:06:48;5.00;87.40
78325;DHT22;67584;51.400;6.692;2024-03-17T05:09:18;5.20;87.30
78325;DHT22;67584;51.400;6.692;2024-03-17T05:11:45;5.30;87.10
78325;DHT22;67584;51.400;6.692;2024-03-17T05:14:11;5.20;87.10
78325;DHT22;67584;51.400;6.692;2024-03-17T05:16:37;5.40;87.30
78325;DHT22;67584;51.400;6.692;2024-03-17T05:19:03;5.20;86.90
78325;DHT22;67584;51.400;6.692;2024-03-17T05:21:29;5.40;86.70
78325;DHT22;67584;51.400;6.692;2024-03-17T05:23:58;5.30;86.50
78325;DHT22;67584;51.400;6.692;2024-03-17T05:26:26;5.30;86.20
78325;DHT22;67584;51.400;6.692;2024-03-17T05:28:52;5.50;86.10
78325;DHT22;67584;51.400;6.692;2024-03-17T05:31:19;5.10;86.00
78325;DHT22;67584;51.400;6.692;2024-03-17T05:33:47;5.50;85.70
78325;DHT22;67584;51.400;6.692;2024-03-17T05:36:12;5.40;85.50
78325;DHT22;67584;51.400;6.692;2024-03-17T05:38:38;5.50;85.20
78325;DHT22;67584;51.400;6.692;2024-03-17T05:41:09;5.60;85.00
78325;DHT22;67584;51.400;6.692;2024-03-17T05:43:36;5.60;85.00
78325;DHT22;67584;51.400;6.692;2024-03-17T05:46:03;5.70;84.90
78325;DHT22;67584;51.400;6.692;2024-03-17T05:48:32;5.80;84.70
78325;DHT22;67584;51.400;6.692;2024-03-17T05:51:01;5.80;84.60
78325;DHT22;67584;51.400;6.692;2024-03-17T05:53:27;5.60;84.30
78325;DHT22;67584;51.400;6.692;2024-03-17T05:55:53;5.70;83.60
78325;DHT22;67584;51.400;6.692;2024-03-17T05:58:19;6.00;83.00
78325;DHT22;67584;51.400;6.692;2024-03-17T06:00:44;6.20;82.90
78325;DHT22;67584;51.400;6.692;2024-03-17T06:03:13;6.10;82.80
78325;DHT22;67584;51.400;6.692;2024-03-17T06:05:39;6.20;82.40
78325;DHT22;67584;51.400;6.692;2024-03-17T06:08:09;6.10;82.40
78325;DHT22;67584;51.400;6.692;2024-03-17T06:10:36;6.20;82.10
78325;DHT22;67584;51.400;6.692;2024-03-17T06:13:02;6.10;82.00
78325;DHT22;67584;51.400;6.692;2024-03-17T06:15:30;6.20;81.40
78325;DHT22;67584;51.400;6.692;2024-03-17T06:17:56;6.50;81.10
78325;DHT22;67584;51.400;6.692;2024-03-17T06:20:23;6.50;81.00
78325;DHT22;67584;51.400;6.692;2024-03-17T06:22:50;6.80;80.80
78325;DHT22;67584;51.400;6.692;2024-03-17T06:25:16;6.70;80.40
78325;DHT22;67584;51.400;6.692;2024-03-17T06:27:42;6.70;80.40
78325;DHT22;67584;51.400;6.692;2024-03-17T06:30:13;6.90;80.10
78325;DHT22;67584;51.400;6.692;2024-03-17T06:32:43;7.00;79.70
78325;DHT22;67584;51.400;6.692;2024-03-17T06:35:13;7.00;79.70
78325;DHT22;67584;51.400;6.692;2024-03-17T06:37:46;6.80;79.40
78325;DHT22;67584;51.400;6.692;2024-03-17T06:40:14;7.10;78.60
78325;DHT22;67584;51.400;6.692;2024-03-17T06:42:40;7.20;78.30
78325;DHT22;67584;51.400;6.692;2024-03-17T06:45:06;7.30;78.10
78325;DHT22;67584;51.400;6.692;2024-03-17T06:47:38;7.20;77.20
78325;DHT22;67584;51.400;6.692;2024-03-17T06:50:06;7.30;77.30
78325;DHT22;67584;51.400;6.692;2024-03-17T06:52:35;7.40;77.00
78325;DHT22;67584;51.400;6.692;2024-03-17T06:55:01;7.60;77.00
78325;DHT22;67584;51.400;6.692;2024-03-17T06:57:27;7.30;76.70
78325;DHT22;67584;51.400;6.692;2024-03-17T06:59:53;7.60;76.60
78325;DHT22;67584;51.400;6.692;2024-03-17T07:02:18;7.60;76.20
78325;DHT22;67584;51.400;6.692;2024-03-17T07:04:46;7.60;76.00
78325;DHT22;67584;51.400;6.692;2024-03-17T07:07:12;7.70;75.90
78325;DHT22;67584;51.400;6.692;2024-03-17T07:09:39;7.60;76.00
78325;DHT22;67584;51.400;6.692;2024-03-17T07:12:08;7.70;76.10
78325;DHT22;67584;51.400;6.692;2024-03-17T07:14:34;7.60;76.20
78325;DHT22;67584;51.400;6.692;2024-03-17T07:17:00;7.70;76.40
78325;DHT22;67584;51.400;6.692;2024-03-17T07:19:25;7.60;76.30
78325;DHT22;67584;51.400;6.692;2024-03-17T07:21:51;7.80;76.60
78325;DHT22;67584;51.400;6.692;2024-03-17T07:24:17;7.70;76.50
78325;DHT22;67584;51.400;6.692;2024-03-17T07:26:42;7.80;76.40
78325;DHT22;67584;51.400;6.692;2024-03-17T07:29:08;7.80;76.30
78325;DHT22;67584;51.400;6.692;2024-03-17T07:31:34;7.80;75.90
78325;DHT22;67584;51.400;6.692;2024-03-17T07:34:00;7.90;76.00
78325;DHT22;67584;51.400;6.692;2024-03-17T07:36:26;8.20;75.30
78325;DHT22;67584;51.400;6.692;2024-03-17T07:38:51;8.30;74.80
78325;DHT22;67584;51.400;6.692;2024-03-17T07:41:18;8.40;73.80
78325;DHT22;67584;51.400;6.692;2024-03-17T07:43:45;8.70;73.80
78325;DHT22;67584;51.400;6.692;2024-03-17T07:46:11;9.00;73.90
78325;DHT22;67584;51.400;6.692;2024-03-17T07:48:39;9.10;72.50
78325;DHT22;67584;51.400;6.692;2024-03-17T07:51:07;9.40;70.40
78325;DHT22;67584;51.400;6.692;2024-03-17T07:53:35;9.30;71.50
78325;DHT22;67584;51.400;6.692;2024-03-17T07:56:03;9.10;71.20
78325;DHT22;67584;51.400;6.692;2024-03-17T07:58:30;8.90;72.10
78325;DHT22;67584;51.400;6.692;2024-03-17T08:01:00;8.80;71.20
78325;DHT22;67584;51.400;6.692;2024-03-17T08:03:30;8.80;71.60
78325;DHT22;67584;51.400;6.692;2024-03-17T08:05:57;8.80;71.20
78325;DHT22;67584;51.400;6.692;2024-03-17T08:08:23;8.90;71.00
78325;DHT22;67584;51.400;6.692;2024-03-17T08:10:50;9.20;70.30
78325;DHT22;67584;51.400;6.692;2024-03-17T08:13:19;9.60;69.50
78325;DHT22;67584;51.400;6.692;2024-03-17T08:15:46;10.00;68.80
78325;DHT22;67584;51.400;6.692;2024-03-17T08:18:13;10.50;68.00
78325;DHT22;67584;51.400;6.692;2024-03-17T08:20:39;10.90;65.50
78325;DHT22;67584;51.400;6.692;2024-03-17T08:23:05;11.00;64.20
78325;DHT22;67584;51.400;6.692;2024-03-17T08:25:32;10.80;64.60
78325;DHT22;67584;51.400;6.692;2024-03-17T08:27:57;10.30;64.80
78325;DHT22;67584;51.400;6.692;2024-03-17T08:30:23;10.40;66.20
78325;DHT22;67584;51.400;6.692;2024-03-17T08:32:49;10.60;64.50
78325;DHT22;67584;51.400;6.692;2024-03-17T08:35:15;10.90;63.40
78325;DHT22;67584;51.400;6.692;2024-03-17T08:37:40;11.10;62.90
78325;DHT22;67584;51.400;6.692;2024-03-17T08:40:06;11.30;63.00
78325;DHT22;67584;51.400;6.692;2024-03-17T08:42:32;11.50;62.00
78325;DHT22;67584;51.400;6.692;2024-03-17T08:44:58;11.70;62.50
78325;DHT22;67584;51.400;6.692;2024-03-17T08:47:24;11.30;62.90
78325;DHT22;67584;51.400;6.692;2024-03-17T08:49:53;11.10;63.60
78325;DHT22;67584;51.400;6.692;2024-03-17T08:52:18;11.40;63.30
78325;DHT22;67584;51.400;6.692;2024-03-17T08:54:47;11.30;63.50
78325;DHT22;67584;51.400;6.692;2024-03-17T08:57:16;11.80;63.60
78325;DHT22;67584;51.400;6.692;2024-03-17T08:59:41;11.60;62.90
78325;DHT22;67584;51.400;6.692;2024-03-17T09:02:12;11.80;63.30
78325;DHT22;67584;51.400;6.692;2024-03-17T09:04:43;11.80;62.50
78325;DHT22;67584;51.400;6.692;2024-03-17T09:07:09;11.60;63.50
78325;DHT22;67584;51.400;6.692;2024-03-17T09:09:34;11.60;63.20
78325;DHT22;67584;51.400;6.692;2024-03-17T09:12:00;11.40;63.50
78325;DHT22;67584;51.400;6.692;2024-03-17T09:14:26;11.20;64.20
78325;DHT22;67584;51.400;6.692;2024-03-17T09:16:51;11.30;64.50
78325;DHT22;67584;51.400;6.692;2024-03-17T09:19:17;11.60;64.00
78325;DHT22;67584;51.400;6.692;2024-03-17T09:21:42;11.70;64.30
78325;DHT22;67584;51.400;6.692;2024-03-17T09:24:08;12.10;63.30
78325;DHT22;67584;51.400;6.692;2024-03-17T09:26:35;12.50;60.80
78325;DHT22;67584;51.400;6.692;2024-03-17T09:29:01;12.50;59.90
78325;DHT22;67584;51.400;6.692;2024-03-17T09:31:27;12.80;59.40
78325;DHT22;67584;51.400;6.692;2024-03-17T09:33:52;12.90;59.00
78325;DHT22;67584;51.400;6.692;2024-03-17T09:36:18;13.10;58.30
78325;DHT22;67584;51.400;6.692;2024-03-17T09:38:44;13.20;58.50
78325;DHT22;67584;51.400;6.692;2024-03-17T09:41:21;13.30;58.40
78325;DHT22;67584;51.400;6.692;2024-03-17T09:43:48;13.40;58.60
78325;DHT22;67584;51.400;6.692;2024-03-17T09:46:15;13.40;57.20
78325;DHT22;67584;51.400;6.692;2024-03-17T09:48:42;13.30;57.30
78325;DHT22;67584;51.400;6.692;2024-03-17T09:51:18;13.40;57.10
78325;DHT22;67584;51.400;6.692;2024-03-17T09:53:44;13.50;57.50
78325;DHT22;67584;51.400;6.692;2024-03-17T09:56:14;13.60;57.10
78325;DHT22;67584;51.400;6.692;2024-03-17T09:58:47;13.60;56.60
78325;DHT22;67584;51.400;6.692;2024-03-17T10:01:13;13.80;56.00
78325;DHT22;67584;51.400;6.692;2024-03-17T10:03:41;13.90;55.60
78325;DHT22;67584;51.400;6.692;2024-03-17T10:06:17;14.10;55.50
78325;DHT22;67584;51.400;6.692;2024-03-17T10:08:51;14.30;55.70
78325;DHT22;67584;51.400;6.692;2024-03-17T10:11:18;14.40;54.70
78325;DHT22;67584;51.400;6.692;2024-03-17T10:13:45;14.40;55.10
78325;DHT22;67584;51.400;6.692;2024-03-17T10:16:25;14.50;54.60
78325;DHT22;67584;51.400;6.692;2024-03-17T10:19:13;14.30;55.20
78325;DHT22;67584;51.400;6.692;2024-03-17T10:21:43;14.40;55.60
78325;DHT22;67584;51.400;6.692;2024-03-17T10:24:20;14.10;56.30
78325;DHT22;67584;51.400;6.692;2024-03-17T10:26:50;14.20;55.40
78325;DHT22;67584;51.400;6.692;2024-03-17T10:29:26;14.30;57.20
78325;DHT22;67584;51.400;6.692;2024-03-17T10:31:57;14.40;56.30
78325;DHT22;67584;51.400;6.692;2024-03-17T10:34:26;14.60;55.70
78325;DHT22;67584;51.400;6.692;2024-03-17T10:39:32;15.20;53.70
78325;DHT22;67584;51.400;6.692;2024-03-17T10:42:03;15.80;53.20
78325;DHT22;67584;51.400;6.692;2024-03-17T10:44:34;16.30;51.90
78325;DHT22;67584;51.400;6.692;2024-03-17T10:54:24;17.30;50.20
78325;DHT22;67584;51.400;6.692;2024-03-17T10:56:55;17.60;47.00
78325;DHT22;67584;51.400;6.692;2024-03-17T10:59:34;17.90;49.10
78325;DHT22;67584;51.400;6.692;2024-03-17T11:02:04;18.00;46.90
78325;DHT22;67584;51.400;6.692;2024-03-17T11:04:39;17.90;47.40
78325;DHT22;67584;51.400;6.692;2024-03-17T11:07:05;17.50;47.20
78325;DHT22;67584;51.400;6.692;2024-03-17T11:09:32;17.70;47.50
78325;DHT22;67584;51.400;6.692;2024-03-17T11:11:58;18.10;47.00
78325;DHT22;67584;51.400;6.692;2024-03-17T11:14:25;18.70;45.30
78325;DHT22;67584;51.400;6.692;2024-03-17T11:16:51;19.00;44.60
78325;DHT22;67584;51.400;6.692;2024-03-17T11:19:17;19.30;43.60
78325;DHT22;67584;51.400;6.692;2024-03-17T11:21:43;19.80;42.40
78325;DHT22;67584;51.400;6.692;2024-03-17T11:24:21;20.20;42.10
78325;DHT22;67584;51.400;6.692;2024-03-17T11:26:47;20.30;42.00
78325;DHT22;67584;51.400;6.692;2024-03-17T11:29:29;20.00;41.90
78325;DHT22;67584;51.400;6.692;2024-03-17T11:31:55;19.40;43.60
78325;DHT22;67584;51.400;6.692;2024-03-17T11:34:35;19.40;42.50
78325;DHT22;67584;51.400;6.692;2024-03-17T11:37:03;19.50;42.90
78325;DHT22;67584;51.400;6.692;2024-03-17T11:39:50;19.40;43.30
78325;DHT22;67584;51.400;6.692;2024-03-17T11:42:17;19.50;43.10
78325;DHT22;67584;51.400;6.692;2024-03-17T11:44:49;19.70;42.30
78325;DHT22;67584;51.400;6.692;2024-03-17T11:47:19;19.90;42.30
78325;DHT22;67584;51.400;6.692;2024-03-17T11:49:44;19.70;41.90
78325;DHT22;67584;51.400;6.692;2024-03-17T11:52:15;19.40;42.50
78325;DHT22;67584;51.400;6.692;2024-03-17T11:54:42;19.10;43.50
78325;DHT22;67584;51.400;6.692;2024-03-17T11:57:10;19.50;45.30
78325;DHT22;67584;51.400;6.692;2024-03-17T11:59:36;19.50;44.10
78325;DHT22;67584;51.400;6.692;2024-03-17T12:02:24;19.40;42.60
78325;DHT22;67584;51.400;6.692;2024-03-17T12:04:52;19.50;44.00
78325;DHT22;67584;51.400;6.692;2024-03-17T12:07:20;20.00;44.20
78325;DHT22;67584;51.400;6.692;2024-03-17T12:09:47;20.40;42.40
78325;DHT22;67584;51.400;6.692;2024-03-17T12:12:18;20.70;41.20
78325;DHT22;67584;51.400;6.692;2024-03-17T12:14:45;20.80;40.50
78325;DHT22;67584;51.400;6.692;2024-03-17T12:17:12;20.90;39.90
78325;DHT22;67584;51.400;6.692;2024-03-17T12:19:45;20.30;41.40
78325;DHT22;67584;51.400;6.692;2024-03-17T12:22:16;20.50;41.70
78325;DHT22;67584;51.400;6.692;2024-03-17T12:24:44;20.90;41.00
78325;DHT22;67584;51.400;6.692;2024-03-17T12:27:23;21.40;40.20
78325;DHT22;67584;51.400;6.692;2024-03-17T12:29:50;21.70;39.10
78325;DHT22;67584;51.400;6.692;2024-03-17T12:32:17;21.30;39.60
78325;DHT22;67584;51.400;6.692;2024-03-17T12:34:44;21.40;39.90
78325;DHT22;67584;51.400;6.692;2024-03-17T12:37:18;21.10;39.90
78325;DHT22;67584;51.400;6.692;2024-03-17T12:39:44;20.40;41.40
78325;DHT22;67584;51.400;6.692;2024-03-17T12:42:16;19.60;42.90
78325;DHT22;67584;51.400;6.692;2024-03-17T12:44:52;19.80;43.00
78325;DHT22;67584;51.400;6.692;2024-03-17T12:47:23;20.20;43.40
78325;DHT22;67584;51.400;6.692;2024-03-17T12:52:23;19.90;43.20
78325;DHT22;67584;51.400;6.692;2024-03-17T12:57:47;19.40;43.40
78325;DHT22;67584;51.400;6.692;2024-03-17T13:00:32;18.90;43.80
78325;DHT22;67584;51.400;6.692;2024-03-17T13:03:00;18.60;44.10
78325;DHT22;67584;51.400;6.692;2024-03-17T13:05:26;18.60;44.60
78325;DHT22;67584;51.400;6.692;2024-03-17T13:07:53;18.80;44.50
78325;DHT22;67584;51.400;6.692;2024-03-17T13:10:22;18.90;43.70
78325;DHT22;67584;51.400;6.692;2024-03-17T13:12:57;19.20;43.40
78325;DHT22;67584;51.400;6.692;2024-03-17T13:15:23;19.50;42.10
78325;DHT22;67584;51.400;6.692;2024-03-17T13:17:49;19.30;44.10
78325;DHT22;67584;51.400;6.692;2024-03-17T13:20:17;19.10;43.80
78325;DHT22;67584;51.400;6.692;2024-03-17T13:22:44;18.80;44.40
78325;DHT22;67584;51.400;6.692;2024-03-17T13:25:18;18.50;44.80
78325;DHT22;67584;51.400;6.692;2024-03-17T13:27:47;18.10;46.10
78325;DHT22;67584;51.400;6.692;2024-03-17T13:30:14;17.70;46.60
78325;DHT22;67584;51.400;6.692;2024-03-17T13:32:40;17.40;47.80
78325;DHT22;67584;51.400;6.692;2024-03-17T13:35:15;17.10;48.50
78325;DHT22;67584;51.400;6.692;2024-03-17T13:37:42;16.90;50.20
78325;DHT22;67584;51.400;6.692;2024-03-17T13:40:07;17.10;50.50
78325;DHT22;67584;51.400;6.692;2024-03-17T13:42:35;17.10;48.90
78325;DHT22;67584;51.400;6.692;2024-03-17T13:45:01;17.00;49.40
78325;DHT22;67584;51.400;6.692;2024-03-17T13:47:27;17.10;49.20
78325;DHT22;67584;51.400;6.692;2024-03-17T13:49:53;17.00;49.40
78325;DHT22;67584;51.400;6.692;2024-03-17T13:52:18;17.10;50.10
78325;DHT22;67584;51.400;6.692;2024-03-17T13:54:45;16.80;49.60
78325;DHT22;67584;51.400;6.692;2024-03-17T13:57:10;16.80;50.20
78325;DHT22;67584;51.400;6.692;2024-03-17T13:59:37;16.70;50.50
78325;DHT22;67584;51.400;6.692;2024-03-17T14:02:03;16.50;51.00
78325;DHT22;67584;51.400;6.692;2024-03-17T14:04:30;16.40;51.40
78325;DHT22;67584;51.400;6.692;2024-03-17T14:06:56;16.30;52.20
78325;DHT22;67584;51.400;6.692;2024-03-17T14:09:22;16.30;52.30
78325;DHT22;67584;51.400;6.692;2024-03-17T14:11:48;16.30;52.90
78325;DHT22;67584;51.400;6.692;2024-03-17T14:14:14;16.00;53.10
78325;DHT22;67584;51.400;6.692;2024-03-17T14:16:40;15.90;53.30
78325;DHT22;67584;51.400;6.692;2024-03-17T14:19:08;15.90;53.60
78325;DHT22;67584;51.400;6.692;2024-03-17T14:21:33;15.70;54.10
78325;DHT22;67584;51.400;6.692;2024-03-17T14:23:59;15.60;54.30
78325;DHT22;67584;51.400;6.692;2024-03-17T14:26:26;15.60;54.90
78325;DHT22;67584;51.400;6.692;2024-03-17T14:28:52;15.70;55.00
78325;DHT22;67584;51.400;6.692;2024-03-17T14:31:20;15.80;55.50
78325;DHT22;67584;51.400;6.692;2024-03-17T14:33:45;15.70;55.30
78325;DHT22;67584;51.400;6.692;2024-03-17T14:36:11;15.90;55.10
78325;DHT22;67584;51.400;6.692;2024-03-17T14:38:37;15.80;55.60
78325;DHT22;67584;51.400;6.692;2024-03-17T14:41:03;15.80;54.90
78325;DHT22;67584;51.400;6.692;2024-03-17T14:43:30;16.00;54.20
78325;DHT22;67584;51.400;6.692;2024-03-17T14:45:56;16.10;54.20
78325;DHT22;67584;51.400;6.692;2024-03-17T14:48:23;16.20;53.70
78325;DHT22;67584;51.400;6.692;2024-03-17T14:50:49;16.30;53.90
78325;DHT22;67584;51.400;6.692;2024-03-17T14:53:15;16.60;52.90
78325;DHT22;67584;51.400;6.692;2024-03-17T14:55:43;16.70;52.40
78325;DHT22;67584;51.400;6.692;2024-03-17T14:58:09;17.00;53.10
78325;DHT22;67584;51.400;6.692;2024-03-17T15:00:35;17.10;51.00
78325;DHT22;67584;51.400;6.692;2024-03-17T15:03:01;17.30;51.00
78325;DHT22;67584;51.400;6.692;2024-03-17T15:05:27;17.70;49.70
78325;DHT22;67584;51.400;6.692;2024-03-17T15:07:53;17.70;50.00
78325;DHT22;67584;51.400;6.692;2024-03-17T15:10:19;18.10;49.00
78325;DHT22;67584;51.400;6.692;2024-03-17T15:12:50;18.50;46.90
78325;DHT22;67584;51.400;6.692;2024-03-17T15:15:16;18.70;46.40
78325;DHT22;67584;51.400;6.692;2024-03-17T15:17:41;18.70;46.00
78325;DHT22;67584;51.400;6.692;2024-03-17T15:20:10;18.80;45.80
78325;DHT22;67584;51.400;6.692;2024-03-17T15:22:44;18.70;45.70
78325;DHT22;67584;51.400;6.692;2024-03-17T15:25:10;18.70;46.10
78325;DHT22;67584;51.400;6.692;2024-03-17T15:27:37;18.70;46.20
78325;DHT22;67584;51.400;6.692;2024-03-17T15:30:04;18.70;46.50
78325;DHT22;67584;51.400;6.692;2024-03-17T15:32:29;18.60;45.80
78325;DHT22;67584;51.400;6.692;2024-03-17T15:34:56;18.80;46.40
78325;DHT22;67584;51.400;6.692;2024-03-17T15:37:24;18.60;46.20
78325;DHT22;67584;51.400;6.692;2024-03-17T15:39:50;18.60;46.20
78325;DHT22;67584;51.400;6.692;2024-03-17T15:42:15;18.50;46.00
78325;DHT22;67584;51.400;6.692;2024-03-17T15:44:42;18.40;47.50
78325;DHT22;67584;51.400;6.692;2024-03-17T15:47:08;18.40;46.20
78325;DHT22;67584;51.400;6.692;2024-03-17T15:49:34;19.40;45.10
78325;DHT22;67584;51.400;6.692;2024-03-17T15:51:59;21.30;40.00
78325;DHT22;67584;51.400;6.692;2024-03-17T15:54:25;22.30;37.50
78325;DHT22;67584;51.400;6.692;2024-03-17T15:56:50;22.80;37.20